Terminal Aerodrome Forecast
Issued by NWS Sterling, VA

Current Version | Previous Version | Text Only | Print | Product List | Glossary On
Versions: 1 2 3 4 5 6 7 8 9 10 11 12 13
000
FTUS41 KLWX 020900 AAA
TAFMRB
TAF AMD
KMRB 020904Z 0209/0306 00000KT P6SM SCT015 BKN045
     FM021100 VRB03KT P6SM OVC015
     FM021300 06004KT P6SM SCT015 OVC050
     FM022300 00000KT P6SM SCT020 OVC050=

USA.gov is the U.S. government's official web portal to all federal, state and local government web resources and services.